sensor_id;sensor_type;location;lat;lon;timestamp;pressure;altitude;pressure_sealevel;temperature;humidity
17383;BME280;8809;51.892;8.384;2023-08-08T00:01:15;100405.31;;;13.72;100.00
17383;BME280;8809;51.892;8.384;2023-08-08T00:03:45;100400.94;;;13.72;100.00
17383;BME280;8809;51.892;8.384;2023-08-08T00:06:20;100389.63;;;13.75;100.00
17383;BME280;8809;51.892;8.384;2023-08-08T00:08:47;100389.66;;;13.77;100.00
17383;BME280;8809;51.892;8.384;2023-08-08T00:11:14;100388.81;;;13.78;100.00
17383;BME280;8809;51.892;8.384;2023-08-08T00:13:41;100370.50;;;13.79;100.00
17383;BME280;8809;51.892;8.384;2023-08-08T00:16:09;100373.19;;;13.81;100.00
17383;BME280;8809;51.892;8.384;2023-08-08T00:18:38;100369.72;;;13.82;100.00
17383;BME280;8809;51.892;8.384;2023-08-08T00:21:05;100375.00;;;13.85;100.00
17383;BME280;8809;51.892;8.384;2023-08-08T00:23:47;100368.03;;;13.84;100.00
17383;BME280;8809;51.892;8.384;2023-08-08T00:26:21;100369.72;;;13.82;100.00
17383;BME280;8809;51.892;8.384;2023-08-08T00:28:51;100367.84;;;13.78;100.00
17383;BME280;8809;51.892;8.384;2023-08-08T00:31:19;100365.13;;;13.74;100.00
17383;BME280;8809;51.892;8.384;2023-08-08T00:33:46;100368.63;;;13.73;100.00
17383;BME280;8809;51.892;8.384;2023-08-08T00:36:15;100359.84;;;13.71;100.00
17383;BME280;8809;51.892;8.384;2023-08-08T00:38:46;100360.72;;;13.72;100.00
17383;BME280;8809;51.892;8.384;2023-08-08T00:41:19;100352.88;;;13.72;100.00
17383;BME280;8809;51.892;8.384;2023-08-08T00:43:47;100348.50;;;13.72;100.00
17383;BME280;8809;51.892;8.384;2023-08-08T00:46:21;100343.28;;;13.72;100.00
17383;BME280;8809;51.892;8.384;2023-08-08T00:48:52;100344.16;;;13.73;100.00
17383;BME280;8809;51.892;8.384;2023-08-08T00:51:20;100342.44;;;13.75;100.00
17383;BME280;8809;51.892;8.384;2023-08-08T00:53:49;100331.16;;;13.78;100.00
17383;BME280;8809;51.892;8.384;2023-08-08T00:56:21;100332.16;;;13.83;100.00
17383;BME280;8809;51.892;8.384;2023-08-08T00:58:48;100337.53;;;13.89;100.00
17383;BME280;8809;51.892;8.384;2023-08-08T01:01:19;100334.28;;;13.99;100.00
17383;BME280;8809;51.892;8.384;2023-08-08T01:03:53;100337.88;;;14.04;100.00
17383;BME280;8809;51.892;8.384;2023-08-08T01:06:37;100336.31;;;14.10;100.00
17383;BME280;8809;51.892;8.384;2023-08-08T01:09:15;100329.47;;;14.17;100.00
17383;BME280;8809;51.892;8.384;2023-08-08T01:11:46;100334.03;;;14.26;100.00
17383;BME280;8809;51.892;8.384;2023-08-08T01:14:18;100335.03;;;14.31;100.00
17383;BME280;8809;51.892;8.384;2023-08-08T01:16:47;100336.81;;;14.32;100.00
17383;BME280;8809;51.892;8.384;2023-08-08T01:19:23;100331.56;;;14.33;100.00
17383;BME280;8809;51.892;8.384;2023-08-08T01:21:57;100334.19;;;14.33;100.00
17383;BME280;8809;51.892;8.384;2023-08-08T01:24:31;100333.34;;;14.34;100.00
17383;BME280;8809;51.892;8.384;2023-08-08T01:27:08;100339.38;;;14.30;100.00
17383;BME280;8809;51.892;8.384;2023-08-08T01:29:41;100337.59;;;14.29;100.00
17383;BME280;8809;51.892;8.384;2023-08-08T01:32:08;100329.78;;;14.31;100.00
17383;BME280;8809;51.892;8.384;2023-08-08T01:34:36;100324.41;;;14.26;100.00
17383;BME280;8809;51.892;8.384;2023-08-08T01:37:09;100328.72;;;14.24;100.00
17383;BME280;8809;51.892;8.384;2023-08-08T01:39:42;100323.50;;;14.24;100.00
17383;BME280;8809;51.892;8.384;2023-08-08T01:42:12;100325.22;;;14.22;100.00
17383;BME280;8809;51.892;8.384;2023-08-08T01:44:49;100332.19;;;14.23;100.00
17383;BME280;8809;51.892;8.384;2023-08-08T01:47:21;100329.53;;;14.20;100.00
17383;BME280;8809;51.892;8.384;2023-08-08T01:49:48;100330.25;;;14.15;100.00
17383;BME280;8809;51.892;8.384;2023-08-08T01:52:17;100324.97;;;14.13;100.00
17383;BME280;8809;51.892;8.384;2023-08-08T01:54:46;100316.25;;;14.14;100.00
17383;BME280;8809;51.892;8.384;2023-08-08T01:57:13;100318.75;;;14.08;100.00
17383;BME280;8809;51.892;8.384;2023-08-08T01:59:44;100322.22;;;14.07;100.00
17383;BME280;8809;51.892;8.384;2023-08-08T02:02:15;100328.19;;;14.00;100.00
17383;BME280;8809;51.892;8.384;2023-08-08T02:04:44;100325.44;;;13.95;100.00
17383;BME280;8809;51.892;8.384;2023-08-08T02:07:11;100313.09;;;13.90;100.00
17383;BME280;8809;51.892;8.384;2023-08-08T02:09:46;100312.13;;;13.86;100.00
17383;BME280;8809;51.892;8.384;2023-08-08T02:12:16;100310.25;;;13.81;100.00
17383;BME280;8809;51.892;8.384;2023-08-08T02:14:43;100313.63;;;13.77;100.00
17383;BME280;8809;51.892;8.384;2023-08-08T02:17:12;100305.72;;;13.73;100.00
17383;BME280;8809;51.892;8.384;2023-08-08T02:19:45;100305.69;;;13.72;100.00
17383;BME280;8809;51.892;8.384;2023-08-08T02:22:13;100296.78;;;13.67;100.00
17383;BME280;8809;51.892;8.384;2023-08-08T02:24:55;100306.34;;;13.65;100.00
17383;BME280;8809;51.892;8.384;2023-08-08T02:27:26;100303.69;;;13.62;100.00
17383;BME280;8809;51.892;8.384;2023-08-08T02:29:53;100291.38;;;13.59;100.00
17383;BME280;8809;51.892;8.384;2023-08-08T02:32:23;100288.84;;;13.62;100.00
17383;BME280;8809;51.892;8.384;2023-08-08T02:34:50;100284.34;;;13.58;100.00
17383;BME280;8809;51.892;8.384;2023-08-08T02:37:20;100292.13;;;13.55;100.00
17383;BME280;8809;51.892;8.384;2023-08-08T02:39:47;100284.25;;;13.54;100.00
17383;BME280;8809;51.892;8.384;2023-08-08T02:42:19;100285.06;;;13.51;100.00
17383;BME280;8809;51.892;8.384;2023-08-08T02:44:48;100285.88;;;13.49;100.00
17383;BME280;8809;51.892;8.384;2023-08-08T02:47:15;100288.44;;;13.47;100.00
17383;BME280;8809;51.892;8.384;2023-08-08T02:49:46;100284.94;;;13.47;100.00
17383;BME280;8809;51.892;8.384;2023-08-08T02:52:14;100283.16;;;13.44;100.00
17383;BME280;8809;51.892;8.384;2023-08-08T02:54:41;100278.75;;;13.43;100.00
17383;BME280;8809;51.892;8.384;2023-08-08T02:57:11;100270.00;;;13.43;100.00
17383;BME280;8809;51.892;8.384;2023-08-08T02:59:39;100273.38;;;13.38;100.00
17383;BME280;8809;51.892;8.384;2023-08-08T03:02:17;100277.75;;;13.38;100.00
17383;BME280;8809;51.892;8.384;2023-08-08T03:04:46;100271.56;;;13.36;100.00
17383;BME280;8809;51.892;8.384;2023-08-08T03:07:13;100275.06;;;13.35;100.00
17383;BME280;8809;51.892;8.384;2023-08-08T03:09:58;100269.81;;;13.35;100.00
17383;BME280;8809;51.892;8.384;2023-08-08T03:12:25;100275.06;;;13.36;100.00
17383;BME280;8809;51.892;8.384;2023-08-08T03:14:56;100262.00;;;13.38;100.00
17383;BME280;8809;51.892;8.384;2023-08-08T03:17:24;100262.91;;;13.38;100.00
17383;BME280;8809;51.892;8.384;2023-08-08T03:19:52;100255.03;;;13.38;100.00
17383;BME280;8809;51.892;8.384;2023-08-08T03:22:26;100256.88;;;13.41;100.00
17383;BME280;8809;51.892;8.384;2023-08-08T03:24:55;100254.28;;;13.43;100.00
17383;BME280;8809;51.892;8.384;2023-08-08T03:27:30;100243.84;;;13.44;100.00
17383;BME280;8809;51.892;8.384;2023-08-08T03:30:05;100248.25;;;13.45;100.00
17383;BME280;8809;51.892;8.384;2023-08-08T03:32:35;100251.75;;;13.47;100.00
17383;BME280;8809;51.892;8.384;2023-08-08T03:35:05;100247.53;;;13.52;100.00
17383;BME280;8809;51.892;8.384;2023-08-08T03:37:35;100240.59;;;13.56;100.00
17383;BME280;8809;51.892;8.384;2023-08-08T03:40:08;100233.66;;;13.58;100.00
17383;BME280;8809;51.892;8.384;2023-08-08T03:42:38;100237.97;;;13.56;100.00
17383;BME280;8809;51.892;8.384;2023-08-08T03:45:12;100231.09;;;13.59;100.00
17383;BME280;8809;51.892;8.384;2023-08-08T03:47:43;100227.63;;;13.60;100.00
17383;BME280;8809;51.892;8.384;2023-08-08T03:50:21;100223.31;;;13.62;100.00
17383;BME280;8809;51.892;8.384;2023-08-08T03:52:48;100222.47;;;13.63;100.00
17383;BME280;8809;51.892;8.384;2023-08-08T03:55:20;100222.47;;;13.63;100.00
17383;BME280;8809;51.892;8.384;2023-08-08T03:57:49;100217.22;;;13.65;100.00
17383;BME280;8809;51.892;8.384;2023-08-08T04:00:20;100223.34;;;13.65;100.00
17383;BME280;8809;51.892;8.384;2023-08-08T04:02:47;100218.16;;;13.67;100.00
17383;BME280;8809;51.892;8.384;2023-08-08T04:05:19;100217.28;;;13.66;100.00
17383;BME280;8809;51.892;8.384;2023-08-08T04:07:48;100226.88;;;13.66;100.00
17383;BME280;8809;51.892;8.384;2023-08-08T04:10:25;100220.72;;;13.65;100.00
17383;BME280;8809;51.892;8.384;2023-08-08T04:12:56;100223.34;;;13.65;100.00
17383;BME280;8809;51.892;8.384;2023-08-08T04:15:27;100226.94;;;13.69;100.00
17383;BME280;8809;51.892;8.384;2023-08-08T04:17:56;100232.19;;;13.69;100.00
17383;BME280;8809;51.892;8.384;2023-08-08T04:20:25;100240.94;;;13.69;100.00
17383;BME280;8809;51.892;8.384;2023-08-08T04:23:06;100245.34;;;13.70;100.00
17383;BME280;8809;51.892;8.384;2023-08-08T04:25:33;100236.63;;;13.71;100.00
17383;BME280;8809;51.892;8.384;2023-08-08T04:28:05;100235.78;;;13.72;100.00
17383;BME280;8809;51.892;8.384;2023-08-08T04:30:35;100231.34;;;13.70;100.00
17383;BME280;8809;51.892;8.384;2023-08-08T04:33:05;100237.50;;;13.72;100.00
17383;BME280;8809;51.892;8.384;2023-08-08T04:35:33;100242.75;;;13.72;100.00
17383;BME280;8809;51.892;8.384;2023-08-08T04:38:00;100237.56;;;13.75;100.00
17383;BME280;8809;51.892;8.384;2023-08-08T04:40:28;100241.09;;;13.77;100.00
17383;BME280;8809;51.892;8.384;2023-08-08T04:42:56;100237.66;;;13.78;100.00
17383;BME280;8809;51.892;8.384;2023-08-08T04:45:23;100235.91;;;13.79;100.00
17383;BME280;8809;51.892;8.384;2023-08-08T04:47:51;100235.06;;;13.80;100.00
17383;BME280;8809;51.892;8.384;2023-08-08T04:50:19;100235.94;;;13.80;100.00
17383;BME280;8809;51.892;8.384;2023-08-08T04:52:46;100226.44;;;13.84;100.00
17383;BME280;8809;51.892;8.384;2023-08-08T04:55:13;100218.56;;;13.84;100.00
17383;BME280;8809;51.892;8.384;2023-08-08T04:57:40;100223.81;;;13.85;100.00
17383;BME280;8809;51.892;8.384;2023-08-08T05:00:08;100218.59;;;13.87;100.00
17383;BME280;8809;51.892;8.384;2023-08-08T05:02:42;100228.25;;;13.88;100.00
17383;BME280;8809;51.892;8.384;2023-08-08T05:05:11;100214.41;;;13.93;100.00
17383;BME280;8809;51.892;8.384;2023-08-08T05:07:47;100212.63;;;13.94;100.00
17383;BME280;8809;51.892;8.384;2023-08-08T05:10:16;100214.41;;;13.95;100.00
17383;BME280;8809;51.892;8.384;2023-08-08T05:12:46;100219.69;;;13.96;100.00
17383;BME280;8809;51.892;8.384;2023-08-08T05:15:13;100218.81;;;13.96;100.00
17383;BME280;8809;51.892;8.384;2023-08-08T05:18:00;100220.66;;;14.00;100.00
17383;BME280;8809;51.892;8.384;2023-08-08T05:20:35;100231.22;;;14.03;100.00
17383;BME280;8809;51.892;8.384;2023-08-08T05:23:02;100220.72;;;14.03;100.00
17383;BME280;8809;51.892;8.384;2023-08-08T05:25:29;100225.13;;;14.05;100.00
17383;BME280;8809;51.892;8.384;2023-08-08T05:28:17;100218.16;;;14.06;100.00
17383;BME280;8809;51.892;8.384;2023-08-08T05:30:44;100219.06;;;14.08;100.00
17383;BME280;8809;51.892;8.384;2023-08-08T05:33:16;100223.47;;;14.09;100.00
17383;BME280;8809;51.892;8.384;2023-08-08T05:35:52;100215.69;;;14.12;100.00
17383;BME280;8809;51.892;8.384;2023-08-08T05:38:26;100211.31;;;14.14;100.00
17383;BME280;8809;51.892;8.384;2023-08-08T05:40:53;100215.72;;;14.15;100.00
17383;BME280;8809;51.892;8.384;2023-08-08T05:43:20;100220.09;;;14.15;100.00
17383;BME280;8809;51.892;8.384;2023-08-08T05:45:50;100213.06;;;14.12;100.00
17383;BME280;8809;51.892;8.384;2023-08-08T05:48:22;100227.13;;;14.17;100.00
17383;BME280;8809;51.892;8.384;2023-08-08T05:50:53;100222.78;;;14.18;100.00
17383;BME280;8809;51.892;8.384;2023-08-08T05:53:32;100218.50;;;14.21;100.00
17383;BME280;8809;51.892;8.384;2023-08-08T05:56:02;100215.94;;;14.26;100.00
17383;BME280;8809;51.892;8.384;2023-08-08T05:58:33;100203.75;;;14.28;100.00
17383;BME280;8809;51.892;8.384;2023-08-08T06:01:00;100212.47;;;14.27;100.00
17383;BME280;8809;51.892;8.384;2023-08-08T06:03:27;100212.53;;;14.30;100.00
17383;BME280;8809;51.892;8.384;2023-08-08T06:05:56;100221.31;;;14.30;100.00
17383;BME280;8809;51.892;8.384;2023-08-08T06:08:24;100211.69;;;14.32;100.00
17383;BME280;8809;51.892;8.384;2023-08-08T06:10:51;100224.94;;;14.37;100.00
17383;BME280;8809;51.892;8.384;2023-08-08T06:13:18;100220.66;;;14.40;100.00
17383;BME280;8809;51.892;8.384;2023-08-08T06:15:47;100225.06;;;14.41;100.00
17383;BME280;8809;51.892;8.384;2023-08-08T06:18:15;100227.75;;;14.46;100.00
17383;BME280;8809;51.892;8.384;2023-08-08T06:20:44;100216.41;;;14.47;100.00
17383;BME280;8809;51.892;8.384;2023-08-08T06:23:15;100224.38;;;14.52;100.00
17383;BME280;8809;51.892;8.384;2023-08-08T06:25:44;100239.34;;;14.56;100.00
17383;BME280;8809;51.892;8.384;2023-08-08T06:28:12;100225.50;;;14.64;100.00
17383;BME280;8809;51.892;8.384;2023-08-08T06:30:39;100233.41;;;14.66;100.00
17383;BME280;8809;51.892;8.384;2023-08-08T06:33:06;100229.94;;;14.67;100.00
17383;BME280;8809;51.892;8.384;2023-08-08T06:35:34;100232.72;;;14.76;100.00
17383;BME280;8809;51.892;8.384;2023-08-08T06:38:07;100233.69;;;14.81;100.00
17383;BME280;8809;51.892;8.384;2023-08-08T06:40:43;100223.31;;;14.87;100.00
17383;BME280;8809;51.892;8.384;2023-08-08T06:43:11;100230.38;;;14.90;100.00
17383;BME280;8809;51.892;8.384;2023-08-08T06:45:38;100235.63;;;14.91;100.00
17383;BME280;8809;51.892;8.384;2023-08-08T06:48:06;100236.47;;;14.90;100.00
17383;BME280;8809;51.892;8.384;2023-08-08T06:50:42;100233.97;;;14.96;100.00
17383;BME280;8809;51.892;8.384;2023-08-08T06:53:11;100228.75;;;14.98;100.00
17383;BME280;8809;51.892;8.384;2023-08-08T06:55:42;100234.16;;;15.05;100.00
17383;BME280;8809;51.892;8.384;2023-08-08T06:58:11;100237.72;;;15.09;100.00
17383;BME280;8809;51.892;8.384;2023-08-08T07:00:38;100235.19;;;15.15;100.00
17383;BME280;8809;51.892;8.384;2023-08-08T07:03:05;100235.28;;;15.21;100.00
17383;BME280;8809;51.892;8.384;2023-08-08T07:05:35;100236.22;;;15.25;100.00
17383;BME280;8809;51.892;8.384;2023-08-08T07:08:06;100231.81;;;15.23;100.00
17383;BME280;8809;51.892;8.384;2023-08-08T07:10:36;100232.75;;;15.26;100.00
17383;BME280;8809;51.892;8.384;2023-08-08T07:13:05;100226.66;;;15.28;100.00
17383;BME280;8809;51.892;8.384;2023-08-08T07:15:38;100223.25;;;15.35;100.00
17383;BME280;8809;51.892;8.384;2023-08-08T07:18:25;100229.50;;;15.42;100.00
17383;BME280;8809;51.892;8.384;2023-08-08T07:21:01;100235.72;;;15.47;100.00
17383;BME280;8809;51.892;8.384;2023-08-08T07:23:36;100234.84;;;15.46;100.00
17383;BME280;8809;51.892;8.384;2023-08-08T07:26:03;100232.28;;;15.52;100.00
17383;BME280;8809;51.892;8.384;2023-08-08T07:28:34;100228.88;;;15.55;100.00
17383;BME280;8809;51.892;8.384;2023-08-08T07:31:04;100226.16;;;15.52;100.00
17383;BME280;8809;51.892;8.384;2023-08-08T07:33:36;100218.25;;;15.52;100.00
17383;BME280;8809;51.892;8.384;2023-08-08T07:36:06;100218.38;;;15.56;100.00
17383;BME280;8809;51.892;8.384;2023-08-08T07:38:34;100214.13;;;15.65;100.00
17383;BME280;8809;51.892;8.384;2023-08-08T07:41:04;100224.66;;;15.68;100.00
17383;BME280;8809;51.892;8.384;2023-08-08T07:43:34;100225.47;;;15.62;100.00
17383;BME280;8809;51.892;8.384;2023-08-08T07:46:01;100211.50;;;15.65;100.00
17383;BME280;8809;51.892;8.384;2023-08-08T07:48:32;100216.63;;;15.58;100.00
17383;BME280;8809;51.892;8.384;2023-08-08T07:51:02;100210.47;;;15.55;100.00
17383;BME280;8809;51.892;8.384;2023-08-08T07:53:45;100212.25;;;15.59;100.00
17383;BME280;8809;51.892;8.384;2023-08-08T07:56:13;100219.28;;;15.60;100.00
17383;BME280;8809;51.892;8.384;2023-08-08T07:58:49;100212.25;;;15.59;100.00
17383;BME280;8809;51.892;8.384;2023-08-08T08:01:17;100218.41;;;15.59;100.00
17383;BME280;8809;51.892;8.384;2023-08-08T08:03:47;100214.00;;;15.57;100.00
17383;BME280;8809;51.892;8.384;2023-08-08T08:06:15;100214.03;;;15.60;100.00
17383;BME280;8809;51.892;8.384;2023-08-08T08:08:43;100210.56;;;15.61;100.00
17383;BME280;8809;51.892;8.384;2023-08-08T08:11:10;100216.75;;;15.65;100.00
17383;BME280;8809;51.892;8.384;2023-08-08T08:13:38;100217.69;;;15.70;100.00
17383;BME280;8809;51.892;8.384;2023-08-08T08:16:09;100213.31;;;15.70;100.00
17383;BME280;8809;51.892;8.384;2023-08-08T08:18:36;100220.44;;;15.76;100.00
17383;BME280;8809;51.892;8.384;2023-08-08T08:21:03;100216.91;;;15.75;100.00
17383;BME280;8809;51.892;8.384;2023-08-08T08:23:37;100218.72;;;15.79;100.00
17383;BME280;8809;51.892;8.384;2023-08-08T08:26:04;100219.63;;;15.81;100.00
17383;BME280;8809;51.892;8.384;2023-08-08T08:28:32;100222.31;;;15.84;100.00
17383;BME280;8809;51.892;8.384;2023-08-08T08:31:04;100208.25;;;15.84;100.00
17383;BME280;8809;51.892;8.384;2023-08-08T08:33:36;100217.03;;;15.84;100.00
17383;BME280;8809;51.892;8.384;2023-08-08T08:36:04;100210.94;;;15.88;100.00
17383;BME280;8809;51.892;8.384;2023-08-08T08:38:31;100222.31;;;15.87;100.00
17383;BME280;8809;51.892;8.384;2023-08-08T08:40:59;100211.78;;;15.86;100.00
17383;BME280;8809;51.892;8.384;2023-08-08T08:43:27;100207.47;;;15.91;100.00
17383;BME280;8809;51.892;8.384;2023-08-08T08:46:19;100206.53;;;15.87;100.00
17383;BME280;8809;51.892;8.384;2023-08-08T08:48:54;100207.41;;;15.86;100.00
17383;BME280;8809;51.892;8.384;2023-08-08T08:51:21;100209.16;;;15.86;100.00
17383;BME280;8809;51.892;8.384;2023-08-08T08:53:50;100202.22;;;15.91;100.00
17383;BME280;8809;51.892;8.384;2023-08-08T08:56:24;100202.25;;;15.95;100.00
17383;BME280;8809;51.892;8.384;2023-08-08T08:58:55;100199.59;;;15.91;100.00
17383;BME280;8809;51.892;8.384;2023-08-08T09:01:23;100201.31;;;15.89;100.00
17383;BME280;8809;51.892;8.384;2023-08-08T09:03:54;100196.00;;;15.87;100.00
17383;BME280;8809;51.892;8.384;2023-08-08T09:06:23;100198.66;;;15.87;100.00
17383;BME280;8809;51.892;8.384;2023-08-08T09:08:51;100203.03;;;15.87;100.00
17383;BME280;8809;51.892;8.384;2023-08-08T09:11:19;100206.50;;;15.83;100.00
17383;BME280;8809;51.892;8.384;2023-08-08T09:13:46;100193.25;;;15.75;100.00
17383;BME280;8809;51.892;8.384;2023-08-08T09:16:14;100206.38;;;15.75;100.00
17383;BME280;8809;51.892;8.384;2023-08-08T09:18:44;100195.41;;;15.48;100.00
17383;BME280;8809;51.892;8.384;2023-08-08T09:21:15;100197.88;;;15.36;100.00
17383;BME280;8809;51.892;8.384;2023-08-08T09:23:42;100205.63;;;15.30;100.00
17383;BME280;8809;51.892;8.384;2023-08-08T09:26:13;100204.69;;;15.25;100.00
17383;BME280;8809;51.892;8.384;2023-08-08T09:28:42;100194.09;;;15.18;100.00
17383;BME280;8809;51.892;8.384;2023-08-08T09:31:12;100199.22;;;15.12;100.00
17383;BME280;8809;51.892;8.384;2023-08-08T09:33:44;100194.00;;;15.14;100.00
17383;BME280;8809;51.892;8.384;2023-08-08T09:36:18;100183.00;;;15.39;100.00
17383;BME280;8809;51.892;8.384;2023-08-08T09:38:46;100183.41;;;15.62;100.00
17383;BME280;8809;51.892;8.384;2023-08-08T09:41:13;100189.94;;;15.91;100.00
17383;BME280;8809;51.892;8.384;2023-08-08T09:43:43;100179.72;;;16.16;100.00
17383;BME280;8809;51.892;8.384;2023-08-08T09:46:12;100182.72;;;16.43;100.00
17383;BME280;8809;51.892;8.384;2023-08-08T09:48:40;100181.25;;;16.73;100.00
17383;BME280;8809;51.892;8.384;2023-08-08T09:51:08;100182.34;;;16.93;100.00
17383;BME280;8809;51.892;8.384;2023-08-08T09:53:39;100183.41;;;17.15;100.00
17383;BME280;8809;51.892;8.384;2023-08-08T09:56:07;100180.03;;;17.28;100.00
17383;BME280;8809;51.892;8.384;2023-08-08T09:58:34;100187.09;;;17.35;100.00
17383;BME280;8809;51.892;8.384;2023-08-08T10:01:05;100189.03;;;17.60;100.00
17383;BME280;8809;51.892;8.384;2023-08-08T10:03:33;100184.78;;;17.76;100.00
17383;BME280;8809;51.892;8.384;2023-08-08T10:06:02;100193.59;;;17.78;100.00
17383;BME280;8809;51.892;8.384;2023-08-08T10:08:39;100195.28;;;17.67;100.00
17383;BME280;8809;51.892;8.384;2023-08-08T10:11:12;100198.69;;;17.60;100.00
17383;BME280;8809;51.892;8.384;2023-08-08T10:13:47;100185.59;;;17.70;100.00
17383;BME280;8809;51.892;8.384;2023-08-08T10:16:22;100199.66;;;17.65;100.00
17383;BME280;8809;51.892;8.384;2023-08-08T10:18:55;100202.13;;;17.50;100.00
17383;BME280;8809;51.892;8.384;2023-08-08T10:21:28;100205.72;;;17.55;100.00
17383;BME280;8809;51.892;8.384;2023-08-08T10:24:19;100197.78;;;17.55;100.00
17383;BME280;8809;51.892;8.384;2023-08-08T10:26:53;100200.44;;;17.55;100.00
17383;BME280;8809;51.892;8.384;2023-08-08T10:29:27;100201.34;;;17.57;100.00
17383;BME280;8809;51.892;8.384;2023-08-08T10:31:59;100201.34;;;17.58;100.00
17383;BME280;8809;51.892;8.384;2023-08-08T10:34:42;100210.22;;;17.66;100.00
17383;BME280;8809;51.892;8.384;2023-08-08T10:37:13;100213.84;;;17.88;100.00
17383;BME280;8809;51.892;8.384;2023-08-08T10:40:00;100213.91;;;17.99;100.00
17383;BME280;8809;51.892;8.384;2023-08-08T10:42:32;100203.47;;;18.18;100.00
17383;BME280;8809;51.892;8.384;2023-08-08T10:45:02;100214.97;;;18.36;100.00
17383;BME280;8809;51.892;8.384;2023-08-08T10:48:10;100221.22;;;18.53;100.00
17383;BME280;8809;51.892;8.384;2023-08-08T10:50:24;100219.53;;;18.69;100.00
17383;BME280;8809;51.892;8.384;2023-08-08T10:52:55;100213.38;;;18.86;100.00
17383;BME280;8809;51.892;8.384;2023-08-08T10:55:35;100203.72;;;19.05;100.00
17383;BME280;8809;51.892;8.384;2023-08-08T10:58:13;100198.44;;;19.14;100.00
17383;BME280;8809;51.892;8.384;2023-08-08T11:00:46;100194.94;;;19.31;100.00
17383;BME280;8809;51.892;8.384;2023-08-08T11:03:19;100201.09;;;19.37;100.00
17383;BME280;8809;51.892;8.384;2023-08-08T11:05:50;100192.25;;;19.23;100.00
17383;BME280;8809;51.892;8.384;2023-08-08T11:08:25;100201.09;;;19.22;100.00
17383;BME280;8809;51.892;8.384;2023-08-08T11:10:57;100201.97;;;19.30;100.00
17383;BME280;8809;51.892;8.384;2023-08-08T11:13:29;100203.72;;;19.42;99.16
17383;BME280;8809;51.892;8.384;2023-08-08T11:15:56;100199.34;;;19.54;99.67
17383;BME280;8809;51.892;8.384;2023-08-08T11:18:47;100195.78;;;19.71;100.00
17383;BME280;8809;51.892;8.384;2023-08-08T11:21:18;100194.03;;;19.63;98.98
17383;BME280;8809;51.892;8.384;2023-08-08T11:23:55;100190.53;;;19.60;94.56
17383;BME280;8809;51.892;8.384;2023-08-08T11:26:47;100183.41;;;19.82;100.00
17383;BME280;8809;51.892;8.384;2023-08-08T11:29:21;100193.91;;;20.09;100.00
17383;BME280;8809;51.892;8.384;2023-08-08T11:31:51;100190.44;;;19.93;90.07
17383;BME280;8809;51.892;8.384;2023-08-08T11:34:22;100192.22;;;19.84;93.59
17383;BME280;8809;51.892;8.384;2023-08-08T11:36:58;100183.38;;;19.92;95.61
17383;BME280;8809;51.892;8.384;2023-08-08T11:39:30;100193.06;;;19.99;90.62
17383;BME280;8809;51.892;8.384;2023-08-08T11:42:01;100189.53;;;20.05;86.20
17383;BME280;8809;51.892;8.384;2023-08-08T11:44:31;100197.47;;;20.08;91.50
17383;BME280;8809;51.892;8.384;2023-08-08T11:47:07;100193.94;;;20.05;93.81
17383;BME280;8809;51.892;8.384;2023-08-08T11:49:47;100202.72;;;20.13;90.16
17383;BME280;8809;51.892;8.384;2023-08-08T11:52:18;100193.91;;;20.09;87.10
17383;BME280;8809;51.892;8.384;2023-08-08T11:55:00;100186.03;;;19.97;88.77
17383;BME280;8809;51.892;8.384;2023-08-08T11:57:31;100188.66;;;19.91;89.69
17383;BME280;8809;51.892;8.384;2023-08-08T12:00:14;100181.63;;;19.87;92.18
17383;BME280;8809;51.892;8.384;2023-08-08T12:02:42;100176.34;;;19.87;95.34
17383;BME280;8809;51.892;8.384;2023-08-08T12:05:21;100179.84;;;19.96;92.29
17383;BME280;8809;51.892;8.384;2023-08-08T12:07:58;100175.41;;;20.03;82.73
17383;BME280;8809;51.892;8.384;2023-08-08T12:10:40;100193.94;;;20.01;81.98
17383;BME280;8809;51.892;8.384;2023-08-08T12:13:21;100185.16;;;19.84;82.13
17383;BME280;8809;51.892;8.384;2023-08-08T12:16:03;100172.78;;;19.97;82.39
17383;BME280;8809;51.892;8.384;2023-08-08T12:18:32;100173.63;;;20.04;87.68
17383;BME280;8809;51.892;8.384;2023-08-08T12:21:03;100171.84;;;20.16;84.10
17383;BME280;8809;51.892;8.384;2023-08-08T12:23:34;100172.59;;;20.46;83.06
17383;BME280;8809;51.892;8.384;2023-08-08T12:26:07;100170.69;;;20.69;85.45
17383;BME280;8809;51.892;8.384;2023-08-08T12:28:44;100189.09;;;20.92;80.51
17383;BME280;8809;51.892;8.384;2023-08-08T12:31:19;100169.53;;;21.06;83.67
17383;BME280;8809;51.892;8.384;2023-08-08T12:33:53;100182.66;;;21.28;82.22
17383;BME280;8809;51.892;8.384;2023-08-08T12:36:23;100179.84;;;21.44;79.35
17383;BME280;8809;51.892;8.384;2023-08-08T12:38:53;100177.09;;;21.55;79.89
17383;BME280;8809;51.892;8.384;2023-08-08T12:41:23;100184.91;;;21.72;79.16
17383;BME280;8809;51.892;8.384;2023-08-08T12:43:57;100181.59;;;21.45;75.84
17383;BME280;8809;51.892;8.384;2023-08-08T12:46:33;100187.06;;;21.29;82.27
17383;BME280;8809;51.892;8.384;2023-08-08T12:49:09;100172.94;;;21.25;79.59
17383;BME280;8809;51.892;8.384;2023-08-08T12:51:47;100186.28;;;21.13;80.24
17383;BME280;8809;51.892;8.384;2023-08-08T12:54:15;100175.78;;;20.98;81.53
17383;BME280;8809;51.892;8.384;2023-08-08T12:56:42;100176.47;;;21.24;79.74
17383;BME280;8809;51.892;8.384;2023-08-08T12:59:12;100180.91;;;21.25;76.34
17383;BME280;8809;51.892;8.384;2023-08-08T13:01:50;100175.66;;;21.21;80.65
17383;BME280;8809;51.892;8.384;2023-08-08T13:04:23;100182.47;;;21.49;82.78
17383;BME280;8809;51.892;8.384;2023-08-08T13:06:54;100178.16;;;21.34;78.04
17383;BME280;8809;51.892;8.384;2023-08-08T13:09:25;100180.00;;;21.28;76.63
17383;BME280;8809;51.892;8.384;2023-08-08T13:11:54;100180.94;;;21.24;79.07